createdAt,value
2022-12-12T00:06:12.216Z,22.30
2022-12-12T00:11:10.956Z,27.43
2022-12-12T00:16:10.248Z,21.83
2022-12-12T00:21:14.123Z,25.60
2022-12-12T00:32:42.952Z,25.90
2022-12-12T00:44:31.326Z,21.20
2022-12-12T00:49:29.584Z,21.87
2022-12-12T00:54:27.759Z,17.63
2022-12-12T00:59:25.929Z,18.37
2022-12-12T01:11:15.824Z,19.20
2022-12-12T01:16:14.481Z,23.10
2022-12-12T01:21:16.080Z,20.20
2022-12-12T01:26:17.504Z,18.37
2022-12-12T01:31:46.625Z,20.37
2022-12-12T01:36:44.864Z,23.93
2022-12-12T01:41:45.288Z,25.00
2022-12-12T01:46:45.016Z,24.33
2022-12-12T01:51:44.170Z,16.30
2022-12-12T01:56:46.198Z,26.00
2022-12-12T02:01:45.040Z,25.93
2022-12-12T02:06:45.194Z,19.63
2022-12-12T02:11:47.059Z,23.43
2022-12-12T02:17:09.289Z,15.80
2022-12-12T02:22:18.966Z,22.30
2022-12-12T02:33:09.937Z,16.77
2022-12-12T02:38:19.460Z,16.60
2022-12-12T02:43:26.326Z,29.00
2022-12-12T02:48:31.625Z,22.70
2022-12-12T02:53:29.980Z,19.83
2022-12-12T02:58:28.649Z,29.10
2022-12-12T03:03:54.490Z,27.60
2022-12-12T03:09:03.717Z,30.37
2022-12-12T03:14:10.997Z,26.63
2022-12-12T03:19:16.642Z,22.87
2022-12-12T03:24:23.405Z,27.27
2022-12-12T03:29:26.752Z,26.80
2022-12-12T03:34:30.162Z,27.63
2022-12-12T03:39:32.849Z,27.23
2022-12-12T03:51:30.278Z,26.30
2022-12-12T03:56:38.958Z,39.57
2022-12-12T04:01:45.089Z,26.87
2022-12-12T04:06:50.506Z,32.17
2022-12-12T04:12:17.261Z,25.63
2022-12-12T04:17:18.989Z,21.20
2022-12-12T04:22:43.199Z,26.90
2022-12-12T04:27:45.506Z,24.50
2022-12-12T04:33:49.719Z,25.13
2022-12-12T04:38:50.912Z,22.63
2022-12-12T04:43:51.464Z,20.07
2022-12-12T04:48:54.098Z,26.97
2022-12-12T04:53:58.757Z,25.93
2022-12-12T04:58:58.308Z,27.20
2022-12-12T05:04:01.985Z,20.87
2022-12-12T05:09:03.599Z,26.03
2022-12-12T05:14:01.833Z,25.23
2022-12-12T05:19:00.271Z,29.53
2022-12-12T05:23:58.402Z,16.00
2022-12-12T05:29:02.362Z,26.77
2022-12-12T05:40:59.303Z,32.27
2022-12-12T05:45:59.078Z,21.93
2022-12-12T05:50:57.311Z,25.50
2022-12-12T06:09:08.616Z,30.30
2022-12-12T06:14:06.709Z,28.80
2022-12-12T06:19:05.390Z,26.13
2022-12-12T06:24:05.856Z,26.10
2022-12-12T06:29:05.808Z,31.03
2022-12-12T06:34:03.926Z,34.90
2022-12-12T06:39:02.433Z,27.83
2022-12-12T06:44:00.820Z,28.53
2022-12-12T06:49:00.517Z,30.23
2022-12-12T06:53:58.871Z,28.47
2022-12-12T06:58:59.136Z,29.93
2022-12-12T07:03:57.333Z,28.60
2022-12-12T07:09:00.306Z,26.00
2022-12-12T07:14:00.005Z,32.13
2022-12-12T07:18:58.207Z,30.23
2022-12-12T07:23:58.859Z,28.47
2022-12-12T07:28:56.967Z,30.63
2022-12-12T07:33:55.444Z,34.20
2022-12-12T07:38:53.533Z,33.40
2022-12-12T07:43:53.339Z,37.10
2022-12-12T07:48:52.131Z,20.33
2022-12-12T08:00:16.319Z,30.97
2022-12-12T08:05:14.741Z,30.20
2022-12-12T08:10:13.118Z,21.67
2022-12-12T08:15:16.786Z,36.67
2022-12-12T08:20:41.302Z,36.20
2022-12-12T08:26:47.345Z,33.13
2022-12-12T08:31:46.892Z,27.63
2022-12-12T08:43:45.434Z,30.07
2022-12-12T08:48:45.150Z,22.90
2022-12-12T08:53:45.827Z,23.57
2022-12-12T08:58:44.202Z,25.73
2022-12-12T09:03:43.812Z,24.00
2022-12-12T09:09:31.978Z,25.67
2022-12-12T09:14:30.123Z,24.70
2022-12-12T09:19:29.619Z,20.80
2022-12-12T09:24:27.930Z,27.00
2022-12-12T09:29:26.082Z,36.97
2022-12-12T09:34:24.253Z,38.00
2022-12-12T09:39:23.705Z,29.47
2022-12-12T09:44:22.710Z,23.40
2022-12-12T09:49:27.170Z,33.37
2022-12-12T09:54:51.997Z,37.30
2022-12-12T10:06:45.084Z,29.93
2022-12-12T10:12:35.185Z,37.80
2022-12-12T10:18:04.183Z,35.10
2022-12-12T10:23:38.847Z,25.47
2022-12-12T10:28:37.146Z,20.53
2022-12-12T10:40:45.506Z,36.63
2022-12-12T10:52:39.107Z,36.67
2022-12-12T10:57:38.613Z,30.23
2022-12-12T11:02:39.048Z,36.93
2022-12-12T11:14:03.758Z,42.57
2022-12-12T11:19:07.236Z,38.87
2022-12-12T11:24:35.196Z,35.80
2022-12-12T11:43:58.151Z,27.00
2022-12-12T11:49:02.282Z,31.60
2022-12-12T11:54:01.052Z,32.70
2022-12-12T11:59:26.738Z,34.47
2022-12-12T12:04:39.102Z,36.70
2022-12-12T12:16:37.227Z,35.73
2022-12-12T12:21:44.547Z,26.50
2022-12-12T12:27:07.506Z,32.03
2022-12-12T12:32:41.466Z,38.67
2022-12-12T12:38:41.013Z,36.33
2022-12-12T12:43:49.445Z,25.20
2022-12-12T12:48:53.396Z,29.47
2022-12-12T12:53:56.623Z,28.80
2022-12-12T12:58:57.712Z,35.70
2022-12-12T13:04:03.018Z,34.23
2022-12-12T13:09:53.163Z,22.60
2022-12-12T13:14:56.896Z,25.10
2022-12-12T13:19:58.729Z,28.90
2022-12-12T13:25:04.265Z,20.80
2022-12-12T13:30:06.084Z,21.40
2022-12-12T13:35:09.752Z,31.80
2022-12-12T13:40:09.323Z,29.37
2022-12-12T13:45:36.657Z,25.17
2022-12-12T13:51:11.150Z,19.30
2022-12-12T13:56:35.912Z,26.00
2022-12-12T14:01:40.197Z,15.20
2022-12-12T14:06:38.572Z,16.13
2022-12-12T14:11:38.630Z,15.83
2022-12-12T14:16:37.773Z,26.63
2022-12-12T14:21:42.313Z,26.40
2022-12-12T14:26:52.045Z,31.60
2022-12-12T14:46:10.397Z,16.47
2022-12-12T14:58:04.307Z,33.67
2022-12-12T15:03:02.612Z,24.10
2022-12-12T15:08:00.867Z,31.13
2022-12-12T15:12:59.085Z,30.17
2022-12-12T15:18:54.130Z,28.60
2022-12-12T15:23:53.683Z,37.80
2022-12-12T15:36:01.873Z,28.27
2022-12-12T15:41:11.281Z,24.40
2022-12-12T15:53:18.102Z,24.37
2022-12-12T16:05:09.103Z,43.07
2022-12-12T16:10:23.001Z,53.87
2022-12-12T16:15:28.994Z,66.37
2022-12-12T16:20:30.612Z,43.90
2022-12-12T16:25:32.411Z,42.63
2022-12-12T16:30:30.480Z,46.73
2022-12-12T16:35:29.892Z,43.67
2022-12-12T16:40:54.595Z,38.63
2022-12-12T16:45:54.253Z,34.30
2022-12-12T16:50:58.319Z,32.83
2022-12-12T16:55:57.135Z,37.60
2022-12-12T17:07:53.643Z,39.30
2022-12-12T17:13:29.397Z,24.13
2022-12-12T17:19:37.181Z,33.63
2022-12-12T17:25:02.316Z,22.50
2022-12-12T17:30:00.439Z,31.53
2022-12-12T17:34:58.593Z,32.40
2022-12-12T17:40:37.603Z,49.73
2022-12-12T17:45:37.129Z,42.90
2022-12-12T17:50:41.308Z,36.70
2022-12-12T18:02:36.755Z,27.40
2022-12-12T18:07:34.985Z,49.33
2022-12-12T18:12:33.259Z,30.37
2022-12-12T18:17:31.414Z,31.67
2022-12-12T18:22:33.038Z,45.13
2022-12-12T18:27:31.216Z,54.20
2022-12-12T18:32:29.807Z,46.63
2022-12-12T18:37:28.149Z,51.63
2022-12-12T18:42:27.666Z,55.40
2022-12-12T18:47:25.860Z,40.23
2022-12-12T18:52:24.189Z,45.23
2022-12-12T18:57:22.409Z,38.27
2022-12-12T19:02:21.937Z,38.77
2022-12-12T19:07:20.131Z,43.63
2022-12-12T19:12:18.633Z,49.40
2022-12-12T19:17:20.731Z,70.27
2022-12-12T19:22:44.373Z,56.23
2022-12-12T19:27:43.615Z,47.17
2022-12-12T19:32:41.785Z,43.67
2022-12-12T19:44:29.737Z,60.77
2022-12-12T19:49:27.933Z,61.03
2022-12-12T19:54:26.427Z,59.00
2022-12-12T19:59:24.560Z,34.20
2022-12-12T20:04:25.614Z,56.37
2022-12-12T20:09:26.089Z,57.47
2022-12-12T20:14:26.279Z,52.00
2022-12-12T20:19:27.856Z,45.17
2022-12-12T20:24:26.165Z,40.47
2022-12-12T20:29:24.768Z,43.73
2022-12-12T20:34:24.708Z,63.70
2022-12-12T20:45:55.171Z,60.00
2022-12-12T20:50:54.712Z,65.87
2022-12-12T20:55:52.856Z,45.37
2022-12-12T21:07:40.875Z,64.33
2022-12-12T21:19:34.582Z,68.60
2022-12-12T21:31:25.426Z,53.57
2022-12-12T21:37:13.806Z,36.87
2022-12-12T21:42:11.997Z,34.40
2022-12-12T21:47:11.478Z,36.23
2022-12-12T21:59:12.232Z,40.23
2022-12-12T22:04:14.862Z,34.00
2022-12-12T22:15:37.802Z,43.23
2022-12-12T22:27:07.506Z,44.67
2022-12-12T22:32:06.040Z,46.30
2022-12-12T22:37:54.789Z,48.53
2022-12-12T22:42:54.271Z,56.53
2022-12-12T22:54:42.687Z,40.83
2022-12-12T23:00:34.124Z,38.33
2022-12-12T23:06:30.647Z,33.43
2022-12-12T23:18:00.218Z,38.53
2022-12-12T23:22:58.383Z,37.87
2022-12-12T23:27:56.488Z,36.43
2022-12-12T23:32:54.933Z,37.00
2022-12-12T23:37:54.513Z,39.87
2022-12-12T23:42:52.624Z,29.50
2022-12-12T23:47:50.801Z,30.33
2022-12-12T23:52:48.981Z,30.00
2022-12-12T23:58:13.633Z,31.27
